Terminal Aerodrome Forecast
Issued by NWS

Home | Current Version | Previous Version | Text Only | Print | Product List | Glossary On
Versions: 1 2 3 4 5 6 7 8 9 10 11 12 13 14 15 16 17
000
FTUS43 KDMX 201732
TAFMCW
TAF
KMCW 201732Z 2018/2118 21018G24KT P6SM SCT250
     FM202100 22014KT P6SM BKN200
     FM210200 26010KT P6SM SCT140
     FM210800 31015KT P6SM BKN140
     FM211300 33030G38KT P6SM BKN120=

USA.gov is the U.S. government's official web portal to all federal, state and local government web resources and services.